Flight Track Log - Related Links

Times and Time Zones

All times are in EDT time to prevent confusion due to time zone crossing. See the EJM214 flight status page for this flight to view local times or setup timezone preferences in your user account.

Time Position Orientation Groundspeed Altitude Reporting Facility
EDT Latitude Longitude Course Direction KTS MPH feet Rate Location/Type
Tue 02:05:42 PM 43.8300 -91.2831 217° Southwest 274 315 3,700  Level Minneapolis Center
Tue 02:06:44 PM 43.7758 -91.3422 218° Southwest 236 272 9,600 4,258 Climbing Minneapolis Center
Tue 02:07:46 PM 43.7208 -91.3967 216° Southwest 255 293 12,500 3,242 Climbing Minneapolis Center
Tue 02:08:48 PM 43.6389 -91.4800 216° Southwest 323 372 16,300 3,532 Climbing Minneapolis Center
Tue 02:09:50 PM 43.5683 -91.5547 218° Southwest 343 395 19,800 3,290 Climbing Minneapolis Center
Tue 02:10:00 PM 43.4789 -91.6844 218° Southwest  Level Estimated
Tue 02:10:52 PM 43.4703 -91.6536 216° Southwest 361 415 23,100  Level Minneapolis Center
Tue 02:11:00 PM 43.4116 -91.7545 217° Southwest  Level FlightAware Approximate
Tue 02:11:54 PM 43.3900 -91.7383 217° Southwest 366 421 24,000  Level Minneapolis Center
Tue 02:12:56 PM 43.3061 -91.8228 216° Southwest 374 430 24,000  Level Minneapolis Center
Tue 02:13:45 PM 43.2383 -91.8919 217° Southwest 379 436 24,000  Level Minneapolis Center
Tue 02:14:47 PM 43.1522 -91.9786 216° Southwest 386 444 24,000  Level Minneapolis Center
Tue 02:15:31 PM 43.0833 -92.0464 216° Southwest 385 443 24,000  Level Chicago Center
Tue 02:16:32 PM 42.9964 -92.1328 216° Southwest 391 450 24,000  Level Chicago Center
Tue 02:17:34 PM 42.8933 -92.2364 216° Southwest 391 450 24,000  Level Chicago Center
Tue 02:18:36 PM 42.8067 -92.3225 216° Southwest 391 450 24,000  Level Chicago Center
Tue 02:19:38 PM 42.7203 -92.4069 216° Southwest 388 447 24,000  Level Chicago Center
Tue 02:20:40 PM 42.6333 -92.4933 216° Southwest 391 450 24,000  Level Chicago Center
Tue 02:21:42 PM 42.5469 -92.5792 216° Southwest 390 449 24,000 -49 Level Chicago Center
Tue 02:22:43 PM 42.4425 -92.6822 216° Southwest 392 451 23,900 -927 Descending Chicago Center
Tue 02:23:45 PM 42.3569 -92.7661 216° Southwest 386 444 22,100 -1,839 Descending Chicago Center
Tue 02:24:47 PM 42.2739 -92.8469 216° Southwest 375 432 20,100 -1,935 Descending Chicago Center
Tue 02:25:49 PM 42.1944 -92.9256 216° Southwest 362 417 18,100 -1,951 Descending Chicago Center
Tue 02:26:50 PM 42.1128 -93.0017 215° Southwest 360 414 16,100 -1,951 Descending Chicago Center
Tue 02:27:52 PM 42.0350 -93.0767 216° Southwest 351 404 14,100 -2,129 Descending Chicago Center
Tue 02:28:54 PM 41.9394 -93.1450 208° Southwest 333 383 11,700 -2,067 Descending Chicago Center
Tue 02:29:51 PM 41.8753 -93.1819 203° Southwest 275 316 10,000 -1,610 Descending Minneapolis Center
Tue 02:30:16 PM 41.8450 -93.2094 214° Southwest 283 326 9,500 -1,770 Descending Minneapolis Center
Tue 02:30:52 PM 41.8094 -93.2258 199° South 251 289 8,200 -2,032 Descending Minneapolis Center
Tue 02:31:18 PM 41.7769 -93.2522 211° Southwest 255 293 7,400 -1,574 Descending Minneapolis Center
Tue 02:31:53 PM 41.7475 -93.2667 200° South 248 285 6,600 -1,475 Descending Minneapolis Center
Tue 02:32:19 PM 41.7147 -93.2917 210° Southwest 249 287 5,900 -1,600 Descending Minneapolis Center
Tue 02:32:53 PM 41.6814 -93.3075 200° South 248 285 5,000 -1,548 Descending Minneapolis Center
Tue 02:33:21 PM 41.6481 -93.3336 210° Southwest 245 282 4,300 -984 Descending Minneapolis Center
Tue 02:33:54 PM 41.6194 -93.3453 197° South 248 285 4,000 -290 Descending Minneapolis Center
Tue 02:34:23 PM 41.5861 -93.3739 213° Southwest 246 283 4,000 -269 Level Minneapolis Center
Tue 02:35:01 PM 41.5639 -93.3969 218° Southwest 214 246 3,700 -774 Descending Minneapolis Center
Tue 02:35:25 PM 41.5442 -93.4281 230° Southwest 216 249 3,200 -590 Descending Minneapolis Center
Tue 02:36:02 PM 41.5294 -93.4589 237° Southwest 208 239 3,100 -194 Descending Minneapolis Center
Tue 02:36:27 PM 41.5100 -93.4972 236° Southwest 206 237 3,000 -167 Descending Minneapolis Center
Tue 02:37:14 PM 41.5078 -93.5369 266° West 170 196 2,900 -194 Descending Minneapolis Center
Tue 02:37:29 PM 41.5008 -93.5583 247° West 169 194 2,800 -689 Descending Minneapolis Center
Tue 02:38:15 PM 41.5064 -93.5869 285° West 121 139 2,200 -677 Descending Minneapolis Center
Tue 02:38:31 PM 41.5019 -93.6061 253° West 135 155 2,100 -700 Descending Minneapolis Center
Tue 02:39:15 PM 41.5236 -93.6228 330° Northwest 112 129 1,500 -871 Descending Minneapolis Center
Tue 02:39:33 PM 41.5239 -93.6422 271° West 118 136 1,200 -375 Descending Minneapolis Center
Tue 02:40:35 PM 41.5433 -93.6694 314° West 116 133 1,000 -194 Descending Minneapolis Center

Login

Don't have an account? Register now (free) for customized features, flight alerts, and more!